createdAt,value
2023-07-23T00:00:52.748Z,27.50
2023-07-23T00:03:20.688Z,27.50
2023-07-23T00:05:48.753Z,27.50
2023-07-23T00:08:16.828Z,27.50
2023-07-23T00:10:44.625Z,27.50
2023-07-23T00:13:12.345Z,27.50
2023-07-23T00:15:40.183Z,27.50
2023-07-23T00:18:08.108Z,27.50
2023-07-23T00:20:36.030Z,27.50
2023-07-23T00:23:03.927Z,27.50
2023-07-23T00:25:31.743Z,27.50
2023-07-23T00:27:59.655Z,27.50
2023-07-23T00:30:27.510Z,27.50
2023-07-23T00:32:55.488Z,27.50
2023-07-23T00:35:24.986Z,27.50
2023-07-23T00:37:53.877Z,27.50
2023-07-23T00:40:21.550Z,27.50
2023-07-23T00:42:49.503Z,27.50
2023-07-23T00:45:17.818Z,27.50
2023-07-23T00:47:46.186Z,27.40
2023-07-23T00:50:14.517Z,27.50
2023-07-23T00:52:43.307Z,27.40
2023-07-23T00:55:11.226Z,27.40
2023-07-23T00:57:39.315Z,27.40
2023-07-23T01:00:09.330Z,27.40
2023-07-23T01:02:37.502Z,27.50
2023-07-23T01:05:06.344Z,27.40
2023-07-23T01:07:35.317Z,27.40
2023-07-23T01:10:05.147Z,27.40
2023-07-23T01:12:35.159Z,27.40
2023-07-23T01:15:06.182Z,27.40
2023-07-23T01:17:35.380Z,27.40
2023-07-23T01:20:07.544Z,27.40
2023-07-23T01:22:37.214Z,27.40
2023-07-23T01:25:06.162Z,27.40
2023-07-23T01:27:34.068Z,27.40
2023-07-23T01:30:02.430Z,27.40
2023-07-23T01:32:30.615Z,27.40
2023-07-23T01:35:01.432Z,27.40
2023-07-23T01:37:29.593Z,27.40
2023-07-23T01:39:57.472Z,27.40
2023-07-23T01:42:26.499Z,27.40
2023-07-23T01:44:54.432Z,27.40
2023-07-23T01:47:23.510Z,27.40
2023-07-23T01:49:52.754Z,27.40
2023-07-23T01:52:20.752Z,27.40
2023-07-23T01:54:48.744Z,27.40
2023-07-23T01:57:16.691Z,27.40
2023-07-23T01:59:44.793Z,27.40
2023-07-23T02:02:12.780Z,27.30
2023-07-23T02:04:40.676Z,27.40
2023-07-23T02:07:08.591Z,27.30
2023-07-23T02:09:36.372Z,27.30
2023-07-23T02:12:04.319Z,27.30
2023-07-23T02:14:32.280Z,27.30
2023-07-23T02:17:00.313Z,27.30
2023-07-23T02:19:28.557Z,27.30
2023-07-23T02:21:56.434Z,27.30
2023-07-23T02:24:24.442Z,27.30
2023-07-23T02:26:52.446Z,27.30
2023-07-23T02:29:20.339Z,27.30
2023-07-23T02:31:48.238Z,27.30
2023-07-23T02:34:16.351Z,27.30
2023-07-23T02:36:46.318Z,27.30
2023-07-23T02:39:15.061Z,27.30
2023-07-23T02:41:43.135Z,27.30
2023-07-23T02:44:12.265Z,27.30
2023-07-23T02:46:40.551Z,27.30
2023-07-23T02:49:08.628Z,27.30
2023-07-23T02:51:36.825Z,27.30
2023-07-23T02:54:04.836Z,27.30
2023-07-23T02:56:33.077Z,27.30
2023-07-23T02:59:01.358Z,27.20
2023-07-23T03:01:29.775Z,27.30
2023-07-23T03:03:58.432Z,27.30
2023-07-23T03:06:26.817Z,27.30
2023-07-23T03:08:54.744Z,27.30
2023-07-23T03:11:22.833Z,27.30
2023-07-23T03:13:50.660Z,27.30
2023-07-23T03:16:18.514Z,27.30
2023-07-23T03:18:46.599Z,27.30
2023-07-23T03:21:14.432Z,27.30
2023-07-23T03:23:45.524Z,27.30
2023-07-23T03:26:13.374Z,27.30
2023-07-23T03:28:41.279Z,27.30
2023-07-23T03:31:09.226Z,27.30
2023-07-23T03:33:37.418Z,27.30
2023-07-23T03:36:05.268Z,27.30
2023-07-23T03:38:33.061Z,27.30
2023-07-23T03:41:00.975Z,27.20
2023-07-23T03:43:28.795Z,27.30
2023-07-23T03:45:56.657Z,27.30
2023-07-23T03:48:24.447Z,27.20
2023-07-23T03:50:52.365Z,27.30
2023-07-23T03:53:20.236Z,27.20
2023-07-23T03:55:48.114Z,27.20
2023-07-23T03:58:17.789Z,27.30
2023-07-23T04:00:45.790Z,27.20
2023-07-23T04:03:13.714Z,27.20
2023-07-23T04:05:42.064Z,27.20
2023-07-23T04:08:09.998Z,27.20
2023-07-23T04:10:37.961Z,27.20
2023-07-23T04:13:05.819Z,27.20
2023-07-23T04:15:36.584Z,27.20
2023-07-23T04:18:10.947Z,27.20
2023-07-23T04:20:38.989Z,27.20
2023-07-23T04:23:07.259Z,27.20
2023-07-23T04:25:35.274Z,27.20
2023-07-23T04:28:04.503Z,27.20
2023-07-23T04:30:34.979Z,27.20
2023-07-23T04:33:03.474Z,27.20
2023-07-23T04:35:31.547Z,27.20
2023-07-23T04:37:59.551Z,27.20
2023-07-23T04:40:27.797Z,27.20
2023-07-23T04:42:55.580Z,27.20
2023-07-23T04:45:23.417Z,27.20
2023-07-23T04:47:51.393Z,27.20
2023-07-23T04:50:19.391Z,27.20
2023-07-23T04:52:47.165Z,27.20
2023-07-23T04:55:16.281Z,27.20
2023-07-23T04:57:44.154Z,27.20
2023-07-23T05:00:12.589Z,27.20
2023-07-23T05:02:40.436Z,27.20
2023-07-23T05:05:08.564Z,27.20
2023-07-23T05:07:36.681Z,27.20
2023-07-23T05:10:04.839Z,27.20
2023-07-23T05:12:32.902Z,27.20
2023-07-23T05:15:11.946Z,27.20
2023-07-23T05:17:40.265Z,27.20
2023-07-23T05:20:09.259Z,27.20
2023-07-23T05:22:37.800Z,27.10
2023-07-23T05:25:06.433Z,27.20
2023-07-23T05:27:34.429Z,27.10
2023-07-23T05:30:02.672Z,27.20
2023-07-23T05:32:31.881Z,27.20
2023-07-23T05:35:00.187Z,27.20
2023-07-23T05:37:28.013Z,27.20
2023-07-23T05:39:56.108Z,27.10
2023-07-23T05:42:24.337Z,27.20
2023-07-23T05:44:52.224Z,27.10
2023-07-23T05:47:20.450Z,27.20
2023-07-23T05:49:48.593Z,27.20
2023-07-23T05:52:16.742Z,27.20
2023-07-23T05:54:45.032Z,27.20
2023-07-23T05:57:13.079Z,27.20
2023-07-23T05:59:41.026Z,27.10
2023-07-23T06:02:09.971Z,27.20
2023-07-23T06:04:39.720Z,27.10
2023-07-23T06:07:07.837Z,27.10
2023-07-23T06:09:36.038Z,27.10
2023-07-23T06:12:04.350Z,27.10
2023-07-23T06:14:32.667Z,27.10
2023-07-23T06:17:00.988Z,27.10
2023-07-23T06:19:29.267Z,27.10
2023-07-23T06:21:57.634Z,27.10
2023-07-23T06:24:25.776Z,27.10
2023-07-23T06:26:54.111Z,27.10
2023-07-23T06:29:22.190Z,27.20
2023-07-23T06:31:50.358Z,27.20
2023-07-23T06:34:18.592Z,27.10
2023-07-23T06:36:47.156Z,27.20
2023-07-23T06:39:15.345Z,27.10
2023-07-23T06:41:43.517Z,27.20
2023-07-23T06:44:12.012Z,27.20
2023-07-23T06:46:40.370Z,27.10
2023-07-23T06:49:08.547Z,27.20
2023-07-23T06:51:36.622Z,27.20
2023-07-23T06:54:04.626Z,27.20
2023-07-23T06:56:32.828Z,27.20
2023-07-23T06:59:01.104Z,27.20
2023-07-23T07:01:29.426Z,27.20
2023-07-23T07:03:59.960Z,27.10
2023-07-23T07:06:27.992Z,27.10
2023-07-23T07:08:56.063Z,27.20
2023-07-23T07:11:24.289Z,27.20
2023-07-23T07:13:52.787Z,27.20
2023-07-23T07:16:21.711Z,27.20
2023-07-23T07:18:50.143Z,27.20
2023-07-23T07:21:18.263Z,27.20
2023-07-23T07:23:46.336Z,27.20
2023-07-23T07:26:14.762Z,27.20
2023-07-23T07:28:43.252Z,27.20
2023-07-23T07:31:13.596Z,27.20
2023-07-23T07:33:42.179Z,27.20
2023-07-23T07:36:10.579Z,27.20
2023-07-23T07:38:38.820Z,27.20
2023-07-23T07:41:07.145Z,27.20
2023-07-23T07:43:35.381Z,27.20
2023-07-23T07:46:07.556Z,27.20
2023-07-23T07:48:36.746Z,27.20
2023-07-23T07:51:06.224Z,27.30
2023-07-23T07:53:35.130Z,27.20
2023-07-23T07:56:03.872Z,27.20
2023-07-23T07:58:32.315Z,27.20
2023-07-23T08:01:01.260Z,27.20
2023-07-23T08:03:30.484Z,27.30
2023-07-23T08:06:00.614Z,27.20
2023-07-23T08:08:30.374Z,27.30
2023-07-23T08:10:59.427Z,27.20
2023-07-23T08:13:28.066Z,27.30
2023-07-23T08:15:56.987Z,27.30
2023-07-23T08:18:26.082Z,27.30
2023-07-23T08:20:58.776Z,27.30
2023-07-23T08:23:27.379Z,27.30
2023-07-23T08:25:58.095Z,27.30
2023-07-23T08:28:33.580Z,27.30
2023-07-23T08:31:02.720Z,27.30
2023-07-23T08:33:32.254Z,27.30
2023-07-23T08:36:01.182Z,27.30
2023-07-23T08:38:30.082Z,27.30
2023-07-23T08:41:04.308Z,27.30
2023-07-23T08:43:35.432Z,27.30
2023-07-23T08:46:03.832Z,27.30
2023-07-23T08:48:58.584Z,27.30
2023-07-23T08:51:28.175Z,27.30
2023-07-23T08:53:57.341Z,27.30
2023-07-23T08:56:25.621Z,27.30
2023-07-23T08:58:54.106Z,27.30
2023-07-23T09:01:24.238Z,27.30
2023-07-23T09:03:52.240Z,27.30
2023-07-23T09:06:20.511Z,27.30
2023-07-23T09:08:49.014Z,27.30
2023-07-23T09:11:17.037Z,27.30
2023-07-23T09:13:45.218Z,27.30
2023-07-23T09:16:13.661Z,27.30
2023-07-23T09:18:44.512Z,27.30
2023-07-23T09:21:12.941Z,27.30
2023-07-23T09:23:40.954Z,27.30
2023-07-23T09:26:10.518Z,27.30
2023-07-23T09:28:38.459Z,27.30
2023-07-23T09:31:06.873Z,27.30
2023-07-23T09:33:37.960Z,27.30
2023-07-23T09:36:06.719Z,27.30
2023-07-23T09:38:35.907Z,27.40
2023-07-23T09:41:04.282Z,27.30
2023-07-23T09:43:35.034Z,27.30
2023-07-23T09:46:03.220Z,27.40
2023-07-23T09:48:31.303Z,27.40
2023-07-23T09:50:59.676Z,27.40
2023-07-23T09:53:30.275Z,27.40
2023-07-23T09:55:58.753Z,27.40
2023-07-23T09:58:28.821Z,27.40
2023-07-23T10:00:57.888Z,27.40
2023-07-23T10:03:26.777Z,27.40
2023-07-23T10:05:54.865Z,27.40
2023-07-23T10:08:23.544Z,27.40
2023-07-23T10:10:52.355Z,27.40
2023-07-23T10:13:23.513Z,27.40
2023-07-23T10:15:52.579Z,27.40
2023-07-23T10:18:23.778Z,27.40
2023-07-23T10:20:52.318Z,27.50
2023-07-23T10:23:22.267Z,27.40
2023-07-23T10:25:50.475Z,27.40
2023-07-23T10:28:24.790Z,27.50
2023-07-23T10:31:16.181Z,27.50
2023-07-23T10:33:44.154Z,27.50
2023-07-23T10:36:12.315Z,27.50
2023-07-23T10:38:40.440Z,27.50
2023-07-23T10:41:08.759Z,27.50
2023-07-23T10:43:39.713Z,27.50
2023-07-23T10:46:11.962Z,27.50
2023-07-23T10:48:44.671Z,27.50
2023-07-23T10:51:14.729Z,27.50
2023-07-23T10:54:09.258Z,27.50
2023-07-23T10:56:40.271Z,27.50
2023-07-23T10:59:26.671Z,27.60
2023-07-23T11:01:55.334Z,27.60
2023-07-23T11:04:27.068Z,27.60
2023-07-23T11:07:02.138Z,27.60
2023-07-23T11:09:34.724Z,27.60
2023-07-23T11:12:05.199Z,27.60
2023-07-23T11:14:36.248Z,27.60
2023-07-23T11:17:04.866Z,27.70
2023-07-23T11:19:33.503Z,27.70
2023-07-23T11:22:02.566Z,27.70
2023-07-23T11:24:32.128Z,27.70
2023-07-23T11:27:01.303Z,27.70
2023-07-23T11:29:33.137Z,27.80
2023-07-23T11:32:03.355Z,27.70
2023-07-23T11:34:31.737Z,27.80
2023-07-23T11:37:00.280Z,27.80
2023-07-23T11:39:28.186Z,27.80
2023-07-23T11:41:56.233Z,27.80
2023-07-23T11:44:24.241Z,27.80
2023-07-23T11:47:00.464Z,27.80
2023-07-23T11:49:28.430Z,27.80
2023-07-23T11:51:58.635Z,27.80
2023-07-23T11:54:26.702Z,27.80
2023-07-23T11:56:54.621Z,27.80
2023-07-23T11:59:22.839Z,27.90
2023-07-23T12:01:50.811Z,27.90
2023-07-23T12:04:18.719Z,27.90
2023-07-23T12:06:46.784Z,27.90
2023-07-23T12:09:15.034Z,28.00
2023-07-23T12:11:44.053Z,28.00
2023-07-23T12:14:15.931Z,28.00
2023-07-23T12:16:44.907Z,28.00
2023-07-23T12:19:22.646Z,28.00
2023-07-23T12:21:54.712Z,28.10
2023-07-23T12:24:30.122Z,28.10
2023-07-23T12:26:59.047Z,28.10
2023-07-23T12:29:28.263Z,28.10
2023-07-23T12:32:12.536Z,28.20
2023-07-23T12:34:41.722Z,28.10
2023-07-23T12:37:10.168Z,28.20
2023-07-23T12:39:38.363Z,28.20
2023-07-23T12:42:06.917Z,28.20
2023-07-23T12:44:34.981Z,28.30
2023-07-23T12:47:03.251Z,28.20
2023-07-23T12:49:31.387Z,28.30
2023-07-23T12:52:00.530Z,28.30
2023-07-23T12:54:28.652Z,28.30
2023-07-23T12:56:57.434Z,28.30
2023-07-23T12:59:25.437Z,28.30
2023-07-23T13:01:53.472Z,28.30
2023-07-23T13:04:21.584Z,28.30
2023-07-23T13:06:50.129Z,28.40
2023-07-23T13:09:18.437Z,28.30
2023-07-23T13:11:46.335Z,28.40
2023-07-23T13:14:14.235Z,28.40
2023-07-23T13:16:42.307Z,28.40
2023-07-23T13:19:10.170Z,28.40
2023-07-23T13:21:38.272Z,28.40
2023-07-23T13:24:06.488Z,28.40
2023-07-23T13:26:34.275Z,28.50
2023-07-23T13:29:02.265Z,28.50
2023-07-23T13:31:30.526Z,28.50
2023-07-23T13:34:01.360Z,28.50
2023-07-23T13:36:29.629Z,28.60
2023-07-23T13:38:57.967Z,28.60
2023-07-23T13:41:25.853Z,28.60
2023-07-23T13:43:53.767Z,28.60
2023-07-23T13:46:21.549Z,28.60
2023-07-23T13:48:49.577Z,28.70
2023-07-23T13:51:17.637Z,28.70
2023-07-23T13:53:45.757Z,28.70
2023-07-23T13:56:13.907Z,28.70
2023-07-23T13:58:42.051Z,28.80
2023-07-23T14:01:10.027Z,28.80
2023-07-23T14:03:38.026Z,28.80
2023-07-23T14:06:06.280Z,28.80
2023-07-23T14:08:34.963Z,28.80
2023-07-23T14:11:03.055Z,28.80
2023-07-23T14:13:30.949Z,28.80
2023-07-23T14:15:59.090Z,28.80
2023-07-23T14:18:27.056Z,28.80
2023-07-23T14:20:54.785Z,28.80
2023-07-23T14:23:22.944Z,28.90
2023-07-23T14:25:51.058Z,28.90
2023-07-23T14:28:19.184Z,28.90
2023-07-23T14:30:51.090Z,28.90
2023-07-23T14:33:21.610Z,28.90
2023-07-23T14:35:51.897Z,28.90
2023-07-23T14:38:19.965Z,28.90
2023-07-23T14:40:50.489Z,29.00
2023-07-23T14:43:18.434Z,28.90
2023-07-23T14:45:46.634Z,29.00
2023-07-23T14:48:14.572Z,29.00
2023-07-23T14:50:42.947Z,29.00
2023-07-23T14:53:12.096Z,29.00
2023-07-23T14:55:40.216Z,29.00
2023-07-23T14:58:08.396Z,29.00
2023-07-23T15:00:37.708Z,29.00
2023-07-23T15:03:06.005Z,29.00
2023-07-23T15:05:34.070Z,29.00
2023-07-23T15:08:02.353Z,29.10
2023-07-23T15:10:30.415Z,29.00
2023-07-23T15:12:59.653Z,29.00
2023-07-23T15:15:28.004Z,29.10
2023-07-23T15:17:56.376Z,29.00
2023-07-23T15:20:24.603Z,29.10
2023-07-23T15:22:56.368Z,29.10
2023-07-23T15:25:26.578Z,29.10
2023-07-23T15:27:55.549Z,29.00
2023-07-23T15:30:23.502Z,29.00
2023-07-23T15:32:51.474Z,29.10
2023-07-23T15:35:19.558Z,29.00
2023-07-23T15:37:47.647Z,29.10
2023-07-23T15:40:15.698Z,29.10
2023-07-23T15:42:43.743Z,29.00
2023-07-23T15:45:12.301Z,29.00
2023-07-23T15:47:40.715Z,29.10
2023-07-23T15:50:10.702Z,29.00
2023-07-23T15:52:38.975Z,29.10
2023-07-23T15:55:07.011Z,29.10
2023-07-23T15:57:34.808Z,29.10
2023-07-23T16:00:03.057Z,29.00
2023-07-23T16:02:32.799Z,29.00
2023-07-23T16:05:00.782Z,29.00
2023-07-23T16:07:28.654Z,29.00
2023-07-23T16:09:56.746Z,29.00
2023-07-23T16:12:24.618Z,29.00
2023-07-23T16:14:52.706Z,29.00
2023-07-23T16:17:21.483Z,29.00
2023-07-23T16:19:49.378Z,29.00
2023-07-23T16:22:17.626Z,28.90
2023-07-23T16:24:45.795Z,28.90
2023-07-23T16:27:13.687Z,28.90
2023-07-23T16:29:43.926Z,28.90
2023-07-23T16:32:12.413Z,28.90
2023-07-23T16:34:40.946Z,28.90
2023-07-23T16:37:09.111Z,28.90
2023-07-23T16:39:37.302Z,28.90
2023-07-23T16:42:05.604Z,28.90
2023-07-23T16:44:34.387Z,28.90
2023-07-23T16:47:02.619Z,28.90
2023-07-23T16:49:30.861Z,28.90
2023-07-23T16:51:58.979Z,28.80
2023-07-23T16:54:27.047Z,28.90
2023-07-23T16:56:54.980Z,28.90
2023-07-23T16:59:23.125Z,28.90
2023-07-23T17:01:50.976Z,28.90
2023-07-23T17:04:18.991Z,28.90
2023-07-23T17:06:47.120Z,28.80
2023-07-23T17:09:14.921Z,28.90
2023-07-23T17:11:42.631Z,28.80
2023-07-23T17:14:10.565Z,28.80
2023-07-23T17:16:40.494Z,28.80
2023-07-23T17:19:08.349Z,28.80
2023-07-23T17:21:39.260Z,28.80
2023-07-23T17:24:08.345Z,28.80
2023-07-23T17:26:36.297Z,28.80
2023-07-23T17:29:04.114Z,28.80
2023-07-23T17:31:34.074Z,28.80
2023-07-23T17:34:02.194Z,28.80
2023-07-23T17:36:30.397Z,28.80
2023-07-23T17:38:58.512Z,28.80
2023-07-23T17:41:26.579Z,28.80
2023-07-23T17:43:54.753Z,28.70
2023-07-23T17:46:23.114Z,28.80
2023-07-23T17:48:51.203Z,28.70
2023-07-23T17:51:19.100Z,28.70
2023-07-23T17:53:46.911Z,28.70
2023-07-23T17:56:14.951Z,28.70
2023-07-23T17:58:43.284Z,28.70
2023-07-23T18:01:28.008Z,28.70
2023-07-23T18:03:57.616Z,28.70
2023-07-23T18:06:25.716Z,28.70
2023-07-23T18:08:53.611Z,28.60
2023-07-23T18:11:21.858Z,28.70
2023-07-23T18:13:49.783Z,28.60
2023-07-23T18:16:17.612Z,28.60
2023-07-23T18:18:45.720Z,28.60
2023-07-23T18:21:13.837Z,28.60
2023-07-23T18:23:44.173Z,28.60
2023-07-23T18:26:12.052Z,28.60
2023-07-23T18:28:40.244Z,28.60
2023-07-23T18:31:15.178Z,28.60
2023-07-23T18:33:53.246Z,28.60
2023-07-23T18:36:22.033Z,28.60
2023-07-23T18:38:50.068Z,28.50
2023-07-23T18:41:18.016Z,28.50
2023-07-23T18:43:46.195Z,28.50
2023-07-23T18:46:15.094Z,28.50
2023-07-23T18:48:43.297Z,28.50
2023-07-23T18:51:11.251Z,28.50
2023-07-23T18:53:39.518Z,28.50
2023-07-23T18:56:07.374Z,28.50
2023-07-23T18:58:35.520Z,28.50
2023-07-23T19:01:03.482Z,28.50
2023-07-23T19:03:31.584Z,28.50
2023-07-23T19:05:59.604Z,28.50
2023-07-23T19:08:27.441Z,28.50
2023-07-23T19:10:55.382Z,28.40
2023-07-23T19:13:23.302Z,28.40
2023-07-23T19:15:51.693Z,28.40
2023-07-23T19:18:19.661Z,28.40
2023-07-23T19:20:47.496Z,28.40
2023-07-23T19:23:15.916Z,28.50
2023-07-23T19:25:43.714Z,28.40
2023-07-23T19:28:11.673Z,28.40
2023-07-23T19:30:40.083Z,28.40
2023-07-23T19:33:08.335Z,28.40
2023-07-23T19:35:37.533Z,28.40
2023-07-23T19:38:06.178Z,28.40
2023-07-23T19:40:34.276Z,28.40
2023-07-23T19:43:02.280Z,28.40
2023-07-23T19:45:30.147Z,28.40
2023-07-23T19:47:58.029Z,28.40
2023-07-23T19:50:26.288Z,28.40
2023-07-23T19:52:54.518Z,28.30
2023-07-23T19:55:22.418Z,28.30
2023-07-23T19:57:50.793Z,28.30
2023-07-23T20:00:18.670Z,28.30
2023-07-23T20:02:47.156Z,28.30
2023-07-23T20:05:15.368Z,28.30
2023-07-23T20:07:43.330Z,28.30
2023-07-23T20:10:11.626Z,28.30
2023-07-23T20:12:39.596Z,28.30
2023-07-23T20:15:07.762Z,28.30
2023-07-23T20:17:35.659Z,28.30
2023-07-23T20:20:04.890Z,28.30
2023-07-23T20:22:32.781Z,28.30
2023-07-23T20:25:00.713Z,28.30
2023-07-23T20:27:29.340Z,28.30
2023-07-23T20:29:58.494Z,28.30
2023-07-23T20:32:28.958Z,28.30
2023-07-23T20:34:58.573Z,28.30
2023-07-23T20:37:26.633Z,28.30
2023-07-23T20:39:54.859Z,28.30
2023-07-23T20:42:23.339Z,28.30
2023-07-23T20:44:51.385Z,28.30
2023-07-23T20:47:19.588Z,28.30
2023-07-23T20:49:47.658Z,28.30
2023-07-23T20:52:15.519Z,28.30
2023-07-23T20:54:43.550Z,28.30
2023-07-23T20:57:11.857Z,28.30
2023-07-23T20:59:39.816Z,28.30
2023-07-23T21:02:08.001Z,28.30
2023-07-23T21:04:36.142Z,28.30
2023-07-23T21:07:04.390Z,28.20
2023-07-23T21:09:33.751Z,28.30
2023-07-23T21:12:02.033Z,28.30
2023-07-23T21:14:29.831Z,28.30
2023-07-23T21:16:57.637Z,28.20
2023-07-23T21:19:25.578Z,28.20
2023-07-23T21:21:53.296Z,28.30
2023-07-23T21:24:21.148Z,28.30
2023-07-23T21:26:48.948Z,28.20
2023-07-23T21:29:17.902Z,28.20
2023-07-23T21:31:45.778Z,28.20
2023-07-23T21:34:13.596Z,28.20
2023-07-23T21:36:41.701Z,28.20
2023-07-23T21:39:09.675Z,28.20
2023-07-23T21:41:37.692Z,28.20
2023-07-23T21:44:05.580Z,28.20
2023-07-23T21:46:33.635Z,28.20
2023-07-23T21:49:02.007Z,28.20
2023-07-23T21:51:29.870Z,28.20
2023-07-23T21:53:57.996Z,28.20
2023-07-23T21:56:26.338Z,28.20
2023-07-23T21:58:54.418Z,28.20
2023-07-23T22:01:23.082Z,28.20
2023-07-23T22:03:52.136Z,28.10
2023-07-23T22:06:25.654Z,28.10
2023-07-23T22:08:53.845Z,28.20
2023-07-23T22:11:21.816Z,28.10
2023-07-23T22:13:49.575Z,28.10
2023-07-23T22:16:17.812Z,28.10
2023-07-23T22:18:45.687Z,28.20
2023-07-23T22:21:13.735Z,28.10
2023-07-23T22:23:41.603Z,28.10
2023-07-23T22:26:09.709Z,28.10
2023-07-23T22:28:37.797Z,28.10
2023-07-23T22:31:05.628Z,28.10
2023-07-23T22:33:33.617Z,28.10
2023-07-23T22:36:01.525Z,28.10
2023-07-23T22:38:29.346Z,28.10
2023-07-23T22:40:57.186Z,28.10
2023-07-23T22:43:25.061Z,28.10
2023-07-23T22:45:54.748Z,28.10
2023-07-23T22:48:23.243Z,28.10
2023-07-23T22:50:53.064Z,28.10
2023-07-23T22:53:21.196Z,28.10
2023-07-23T22:55:49.178Z,28.10
2023-07-23T22:58:17.227Z,28.00
2023-07-23T23:00:44.969Z,28.00
2023-07-23T23:03:13.183Z,28.10
2023-07-23T23:05:41.349Z,28.10
2023-07-23T23:08:09.289Z,28.10
2023-07-23T23:10:37.302Z,28.10
2023-07-23T23:13:05.153Z,28.10
2023-07-23T23:15:33.052Z,28.10
2023-07-23T23:18:01.183Z,28.00
2023-07-23T23:20:29.040Z,28.10
2023-07-23T23:22:57.062Z,28.10
2023-07-23T23:25:24.793Z,28.00
2023-07-23T23:27:53.212Z,28.10
2023-07-23T23:30:21.240Z,28.00
2023-07-23T23:32:49.301Z,28.10
2023-07-23T23:35:17.067Z,28.00
2023-07-23T23:37:45.202Z,28.00
2023-07-23T23:40:13.402Z,28.00
2023-07-23T23:42:41.700Z,28.00
2023-07-23T23:45:09.668Z,28.10
2023-07-23T23:47:37.630Z,28.00
2023-07-23T23:50:05.852Z,28.00
2023-07-23T23:52:33.864Z,28.00
2023-07-23T23:55:01.705Z,28.00
2023-07-23T23:57:29.639Z,28.00
2023-07-23T23:59:58.056Z,28.00
